sensor_id;sensor_type;location;lat;lon;timestamp;P1;durP1;ratioP1;P2;durP2;ratioP2
289;SDS011;13193;48.874;9.086;2022-12-18T00:01:36;84.60;;;27.70;;
289;SDS011;13193;48.874;9.086;2022-12-18T00:04:03;85.37;;;27.60;;
289;SDS011;13193;48.874;9.086;2022-12-18T00:06:32;67.40;;;24.73;;
289;SDS011;13193;48.874;9.086;2022-12-18T00:09:00;103.20;;;27.87;;
289;SDS011;13193;48.874;9.086;2022-12-18T00:11:28;71.27;;;22.70;;
289;SDS011;13193;48.874;9.086;2022-12-18T00:13:55;109.90;;;29.17;;
289;SDS011;13193;48.874;9.086;2022-12-18T00:16:23;76.10;;;25.90;;
289;SDS011;13193;48.874;9.086;2022-12-18T00:18:51;113.33;;;27.03;;
289;SDS011;13193;48.874;9.086;2022-12-18T00:21:20;98.83;;;32.30;;
289;SDS011;13193;48.874;9.086;2022-12-18T00:23:46;93.80;;;32.00;;
289;SDS011;13193;48.874;9.086;2022-12-18T00:26:14;103.00;;;28.00;;
289;SDS011;13193;48.874;9.086;2022-12-18T00:28:51;82.63;;;28.90;;
289;SDS011;13193;48.874;9.086;2022-12-18T00:31:18;73.30;;;28.10;;
289;SDS011;13193;48.874;9.086;2022-12-18T00:33:46;58.10;;;22.43;;
289;SDS011;13193;48.874;9.086;2022-12-18T00:36:15;98.73;;;28.90;;
289;SDS011;13193;48.874;9.086;2022-12-18T00:38:43;72.83;;;27.17;;
289;SDS011;13193;48.874;9.086;2022-12-18T00:41:10;58.90;;;22.73;;
289;SDS011;13193;48.874;9.086;2022-12-18T00:43:37;72.97;;;24.10;;
289;SDS011;13193;48.874;9.086;2022-12-18T00:46:03;80.70;;;24.27;;
289;SDS011;13193;48.874;9.086;2022-12-18T00:48:29;61.80;;;25.50;;
289;SDS011;13193;48.874;9.086;2022-12-18T00:50:55;62.87;;;25.97;;
289;SDS011;13193;48.874;9.086;2022-12-18T00:53:21;68.90;;;21.93;;
289;SDS011;13193;48.874;9.086;2022-12-18T00:55:46;68.13;;;24.40;;
289;SDS011;13193;48.874;9.086;2022-12-18T00:58:13;64.77;;;23.20;;
289;SDS011;13193;48.874;9.086;2022-12-18T01:00:40;65.00;;;23.60;;
289;SDS011;13193;48.874;9.086;2022-12-18T01:03:06;91.50;;;28.73;;
289;SDS011;13193;48.874;9.086;2022-12-18T01:05:32;70.67;;;22.83;;
289;SDS011;13193;48.874;9.086;2022-12-18T01:07:58;89.07;;;23.00;;
289;SDS011;13193;48.874;9.086;2022-12-18T01:10:24;61.97;;;22.77;;
289;SDS011;13193;48.874;9.086;2022-12-18T01:12:50;67.77;;;26.20;;
289;SDS011;13193;48.874;9.086;2022-12-18T01:15:16;56.90;;;22.03;;
289;SDS011;13193;48.874;9.086;2022-12-18T01:17:43;66.10;;;24.80;;
289;SDS011;13193;48.874;9.086;2022-12-18T01:20:11;71.43;;;24.73;;
289;SDS011;13193;48.874;9.086;2022-12-18T01:22:37;97.53;;;26.00;;
289;SDS011;13193;48.874;9.086;2022-12-18T01:25:03;85.17;;;25.13;;
289;SDS011;13193;48.874;9.086;2022-12-18T01:27:30;57.63;;;22.10;;
289;SDS011;13193;48.874;9.086;2022-12-18T01:29:56;69.90;;;27.53;;
289;SDS011;13193;48.874;9.086;2022-12-18T01:32:22;59.50;;;24.03;;
289;SDS011;13193;48.874;9.086;2022-12-18T01:34:47;65.13;;;25.03;;
289;SDS011;13193;48.874;9.086;2022-12-18T01:37:13;65.40;;;22.80;;
289;SDS011;13193;48.874;9.086;2022-12-18T01:39:39;55.77;;;19.90;;
289;SDS011;13193;48.874;9.086;2022-12-18T01:42:14;64.73;;;24.40;;
289;SDS011;13193;48.874;9.086;2022-12-18T01:50:04;59.87;;;19.10;;
289;SDS011;13193;48.874;9.086;2022-12-18T01:53:08;64.73;;;20.77;;
289;SDS011;13193;48.874;9.086;2022-12-18T01:55:40;50.13;;;19.77;;
289;SDS011;13193;48.874;9.086;2022-12-18T01:58:10;51.70;;;22.90;;
289;SDS011;13193;48.874;9.086;2022-12-18T02:00:39;61.77;;;19.07;;
289;SDS011;13193;48.874;9.086;2022-12-18T02:03:04;56.90;;;20.03;;
289;SDS011;13193;48.874;9.086;2022-12-18T02:05:47;57.90;;;18.03;;
289;SDS011;13193;48.874;9.086;2022-12-18T02:08:22;65.50;;;18.97;;
289;SDS011;13193;48.874;9.086;2022-12-18T02:28:03;58.60;;;21.77;;
289;SDS011;13193;48.874;9.086;2022-12-18T02:30:32;47.70;;;18.67;;
289;SDS011;13193;48.874;9.086;2022-12-18T02:32:59;60.47;;;19.47;;
289;SDS011;13193;48.874;9.086;2022-12-18T02:35:27;84.93;;;25.57;;
289;SDS011;13193;48.874;9.086;2022-12-18T02:37:55;77.00;;;23.20;;
289;SDS011;13193;48.874;9.086;2022-12-18T02:40:23;74.20;;;21.17;;
289;SDS011;13193;48.874;9.086;2022-12-18T02:42:50;67.53;;;22.20;;
289;SDS011;13193;48.874;9.086;2022-12-18T02:45:16;70.57;;;23.73;;
289;SDS011;13193;48.874;9.086;2022-12-18T02:47:43;62.53;;;23.60;;
289;SDS011;13193;48.874;9.086;2022-12-18T03:01:09;58.80;;;18.50;;
289;SDS011;13193;48.874;9.086;2022-12-18T03:03:41;86.93;;;24.20;;
289;SDS011;13193;48.874;9.086;2022-12-18T03:06:23;56.50;;;18.20;;
289;SDS011;13193;48.874;9.086;2022-12-18T03:08:56;76.00;;;23.70;;
289;SDS011;13193;48.874;9.086;2022-12-18T03:11:28;62.17;;;16.73;;
289;SDS011;13193;48.874;9.086;2022-12-18T03:14:16;59.67;;;19.20;;
289;SDS011;13193;48.874;9.086;2022-12-18T03:16:46;44.80;;;17.80;;
289;SDS011;13193;48.874;9.086;2022-12-18T03:19:15;51.17;;;19.03;;
289;SDS011;13193;48.874;9.086;2022-12-18T03:21:44;66.03;;;19.07;;
289;SDS011;13193;48.874;9.086;2022-12-18T03:24:19;67.27;;;21.13;;
289;SDS011;13193;48.874;9.086;2022-12-18T03:26:47;49.27;;;17.80;;
289;SDS011;13193;48.874;9.086;2022-12-18T03:29:27;67.30;;;19.23;;
289;SDS011;13193;48.874;9.086;2022-12-18T03:32:11;63.07;;;19.40;;
289;SDS011;13193;48.874;9.086;2022-12-18T03:34:41;69.70;;;21.17;;
289;SDS011;13193;48.874;9.086;2022-12-18T03:37:09;61.33;;;18.30;;
289;SDS011;13193;48.874;9.086;2022-12-18T03:39:34;35.27;;;13.50;;
289;SDS011;13193;48.874;9.086;2022-12-18T03:42:08;67.57;;;24.30;;
289;SDS011;13193;48.874;9.086;2022-12-18T03:44:45;68.00;;;20.97;;
289;SDS011;13193;48.874;9.086;2022-12-18T03:47:25;41.23;;;14.50;;
289;SDS011;13193;48.874;9.086;2022-12-18T03:52:43;46.70;;;19.87;;
289;SDS011;13193;48.874;9.086;2022-12-18T03:55:27;68.70;;;24.20;;
289;SDS011;13193;48.874;9.086;2022-12-18T03:57:58;51.03;;;18.80;;
289;SDS011;13193;48.874;9.086;2022-12-18T04:00:26;55.73;;;18.97;;
289;SDS011;13193;48.874;9.086;2022-12-18T04:02:54;43.07;;;19.63;;
289;SDS011;13193;48.874;9.086;2022-12-18T04:05:21;62.20;;;18.70;;
289;SDS011;13193;48.874;9.086;2022-12-18T04:07:49;63.73;;;22.03;;
289;SDS011;13193;48.874;9.086;2022-12-18T04:10:17;37.43;;;16.80;;
289;SDS011;13193;48.874;9.086;2022-12-18T04:12:43;58.87;;;17.10;;
289;SDS011;13193;48.874;9.086;2022-12-18T04:15:09;68.33;;;22.17;;
289;SDS011;13193;48.874;9.086;2022-12-18T04:17:36;40.83;;;17.70;;
289;SDS011;13193;48.874;9.086;2022-12-18T04:20:03;47.80;;;20.00;;
289;SDS011;13193;48.874;9.086;2022-12-18T04:22:29;47.57;;;20.07;;
289;SDS011;13193;48.874;9.086;2022-12-18T04:24:55;63.63;;;17.87;;
289;SDS011;13193;48.874;9.086;2022-12-18T04:27:20;43.17;;;15.37;;
289;SDS011;13193;48.874;9.086;2022-12-18T04:29:46;46.77;;;17.60;;
289;SDS011;13193;48.874;9.086;2022-12-18T04:32:12;77.13;;;22.60;;
289;SDS011;13193;48.874;9.086;2022-12-18T04:34:37;56.13;;;16.27;;
289;SDS011;13193;48.874;9.086;2022-12-18T04:37:03;49.40;;;17.60;;
289;SDS011;13193;48.874;9.086;2022-12-18T04:39:29;48.10;;;17.90;;
289;SDS011;13193;48.874;9.086;2022-12-18T04:41:54;64.73;;;18.67;;
289;SDS011;13193;48.874;9.086;2022-12-18T04:44:20;37.20;;;13.33;;
289;SDS011;13193;48.874;9.086;2022-12-18T04:46:45;47.03;;;16.67;;
289;SDS011;13193;48.874;9.086;2022-12-18T04:49:11;54.40;;;19.93;;
289;SDS011;13193;48.874;9.086;2022-12-18T04:51:37;55.60;;;16.57;;
289;SDS011;13193;48.874;9.086;2022-12-18T04:54:03;52.37;;;20.10;;
289;SDS011;13193;48.874;9.086;2022-12-18T04:56:29;42.97;;;14.17;;
289;SDS011;13193;48.874;9.086;2022-12-18T04:58:56;39.50;;;16.17;;
289;SDS011;13193;48.874;9.086;2022-12-18T05:01:22;49.40;;;16.20;;
289;SDS011;13193;48.874;9.086;2022-12-18T05:03:47;48.80;;;16.33;;
289;SDS011;13193;48.874;9.086;2022-12-18T05:06:13;46.70;;;15.03;;
289;SDS011;13193;48.874;9.086;2022-12-18T05:08:39;40.93;;;15.40;;
289;SDS011;13193;48.874;9.086;2022-12-18T05:11:05;32.90;;;12.77;;
289;SDS011;13193;48.874;9.086;2022-12-18T05:13:33;53.80;;;15.03;;
289;SDS011;13193;48.874;9.086;2022-12-18T05:16:00;44.57;;;17.07;;
289;SDS011;13193;48.874;9.086;2022-12-18T05:18:26;38.90;;;14.83;;
289;SDS011;13193;48.874;9.086;2022-12-18T05:20:52;41.80;;;13.07;;
289;SDS011;13193;48.874;9.086;2022-12-18T05:23:19;63.37;;;17.40;;
289;SDS011;13193;48.874;9.086;2022-12-18T05:26:04;46.83;;;17.70;;
289;SDS011;13193;48.874;9.086;2022-12-18T05:28:31;61.03;;;16.70;;
289;SDS011;13193;48.874;9.086;2022-12-18T05:30:59;43.27;;;16.33;;
289;SDS011;13193;48.874;9.086;2022-12-18T05:33:26;38.20;;;12.53;;
289;SDS011;13193;48.874;9.086;2022-12-18T05:35:55;33.40;;;14.20;;
289;SDS011;13193;48.874;9.086;2022-12-18T05:38:23;52.30;;;19.10;;
289;SDS011;13193;48.874;9.086;2022-12-18T05:40:50;47.73;;;13.57;;
289;SDS011;13193;48.874;9.086;2022-12-18T05:43:16;46.07;;;17.47;;
289;SDS011;13193;48.874;9.086;2022-12-18T05:45:43;59.30;;;17.33;;
289;SDS011;13193;48.874;9.086;2022-12-18T05:48:08;60.83;;;17.63;;
289;SDS011;13193;48.874;9.086;2022-12-18T05:50:37;33.17;;;14.17;;
289;SDS011;13193;48.874;9.086;2022-12-18T05:53:05;51.10;;;19.13;;
289;SDS011;13193;48.874;9.086;2022-12-18T05:55:34;49.27;;;16.60;;
289;SDS011;13193;48.874;9.086;2022-12-18T05:58:01;50.80;;;16.83;;
289;SDS011;13193;48.874;9.086;2022-12-18T06:00:29;41.13;;;17.37;;
289;SDS011;13193;48.874;9.086;2022-12-18T06:02:55;52.07;;;16.53;;
289;SDS011;13193;48.874;9.086;2022-12-18T06:05:20;57.67;;;19.37;;
289;SDS011;13193;48.874;9.086;2022-12-18T06:07:46;52.90;;;19.53;;
289;SDS011;13193;48.874;9.086;2022-12-18T06:10:12;41.30;;;15.13;;
289;SDS011;13193;48.874;9.086;2022-12-18T06:12:37;57.07;;;16.83;;
289;SDS011;13193;48.874;9.086;2022-12-18T06:15:03;55.93;;;18.70;;
289;SDS011;13193;48.874;9.086;2022-12-18T06:17:30;57.97;;;19.00;;
289;SDS011;13193;48.874;9.086;2022-12-18T06:19:56;56.43;;;19.53;;
289;SDS011;13193;48.874;9.086;2022-12-18T06:22:22;53.13;;;18.33;;
289;SDS011;13193;48.874;9.086;2022-12-18T06:24:48;46.97;;;17.60;;
289;SDS011;13193;48.874;9.086;2022-12-18T06:27:14;39.57;;;17.00;;
289;SDS011;13193;48.874;9.086;2022-12-18T06:29:39;39.07;;;15.17;;
289;SDS011;13193;48.874;9.086;2022-12-18T06:32:05;48.90;;;15.80;;
289;SDS011;13193;48.874;9.086;2022-12-18T06:34:31;52.37;;;15.77;;
289;SDS011;13193;48.874;9.086;2022-12-18T06:36:57;36.83;;;12.03;;
289;SDS011;13193;48.874;9.086;2022-12-18T06:39:23;38.53;;;12.50;;
289;SDS011;13193;48.874;9.086;2022-12-18T06:41:48;48.97;;;16.97;;
289;SDS011;13193;48.874;9.086;2022-12-18T06:44:14;37.83;;;15.80;;
289;SDS011;13193;48.874;9.086;2022-12-18T06:46:40;44.00;;;16.47;;
289;SDS011;13193;48.874;9.086;2022-12-18T06:49:05;49.53;;;15.70;;
289;SDS011;13193;48.874;9.086;2022-12-18T06:51:31;38.07;;;11.47;;
289;SDS011;13193;48.874;9.086;2022-12-18T06:53:57;46.30;;;16.77;;
289;SDS011;13193;48.874;9.086;2022-12-18T06:56:22;44.33;;;15.50;;
289;SDS011;13193;48.874;9.086;2022-12-18T06:58:48;50.83;;;15.20;;
289;SDS011;13193;48.874;9.086;2022-12-18T07:01:13;39.43;;;13.93;;
289;SDS011;13193;48.874;9.086;2022-12-18T07:03:40;42.70;;;16.87;;
289;SDS011;13193;48.874;9.086;2022-12-18T07:06:06;40.23;;;14.40;;
289;SDS011;13193;48.874;9.086;2022-12-18T07:08:38;46.97;;;14.90;;
289;SDS011;13193;48.874;9.086;2022-12-18T07:11:04;59.60;;;16.57;;
289;SDS011;13193;48.874;9.086;2022-12-18T07:13:30;38.30;;;15.23;;
289;SDS011;13193;48.874;9.086;2022-12-18T07:16:02;48.27;;;15.50;;
289;SDS011;13193;48.874;9.086;2022-12-18T07:18:28;37.20;;;14.60;;
289;SDS011;13193;48.874;9.086;2022-12-18T07:20:54;62.07;;;14.53;;
289;SDS011;13193;48.874;9.086;2022-12-18T07:23:20;46.67;;;16.37;;
289;SDS011;13193;48.874;9.086;2022-12-18T07:25:45;32.83;;;11.27;;
289;SDS011;13193;48.874;9.086;2022-12-18T07:28:11;44.33;;;16.23;;
289;SDS011;13193;48.874;9.086;2022-12-18T07:30:37;43.37;;;12.67;;
289;SDS011;13193;48.874;9.086;2022-12-18T07:33:03;36.70;;;15.60;;
289;SDS011;13193;48.874;9.086;2022-12-18T07:35:29;46.23;;;16.07;;
289;SDS011;13193;48.874;9.086;2022-12-18T07:37:54;49.57;;;17.67;;
289;SDS011;13193;48.874;9.086;2022-12-18T07:40:20;38.00;;;11.50;;
289;SDS011;13193;48.874;9.086;2022-12-18T07:42:45;52.10;;;20.47;;
289;SDS011;13193;48.874;9.086;2022-12-18T07:45:11;58.27;;;18.40;;
289;SDS011;13193;48.874;9.086;2022-12-18T07:47:37;74.20;;;26.30;;
289;SDS011;13193;48.874;9.086;2022-12-18T07:50:03;65.47;;;17.97;;
289;SDS011;13193;48.874;9.086;2022-12-18T07:52:29;47.10;;;17.13;;
289;SDS011;13193;48.874;9.086;2022-12-18T07:54:55;40.30;;;16.40;;
289;SDS011;13193;48.874;9.086;2022-12-18T07:57:20;47.90;;;17.67;;
289;SDS011;13193;48.874;9.086;2022-12-18T07:59:46;75.57;;;19.90;;
289;SDS011;13193;48.874;9.086;2022-12-18T08:02:12;33.10;;;14.50;;
289;SDS011;13193;48.874;9.086;2022-12-18T08:04:37;45.67;;;16.30;;
289;SDS011;13193;48.874;9.086;2022-12-18T08:07:03;52.33;;;19.00;;
289;SDS011;13193;48.874;9.086;2022-12-18T08:09:28;48.47;;;14.93;;
289;SDS011;13193;48.874;9.086;2022-12-18T08:11:55;37.27;;;14.80;;
289;SDS011;13193;48.874;9.086;2022-12-18T08:14:21;51.83;;;18.60;;
289;SDS011;13193;48.874;9.086;2022-12-18T08:16:48;34.40;;;11.70;;
289;SDS011;13193;48.874;9.086;2022-12-18T08:19:13;33.37;;;9.60;;
289;SDS011;13193;48.874;9.086;2022-12-18T08:21:40;40.00;;;14.00;;
289;SDS011;13193;48.874;9.086;2022-12-18T08:24:06;23.13;;;11.57;;
289;SDS011;13193;48.874;9.086;2022-12-18T08:26:33;43.63;;;14.60;;
289;SDS011;13193;48.874;9.086;2022-12-18T08:28:59;22.87;;;7.17;;
289;SDS011;13193;48.874;9.086;2022-12-18T08:31:25;17.47;;;7.00;;
289;SDS011;13193;48.874;9.086;2022-12-18T08:33:53;41.60;;;15.50;;
289;SDS011;13193;48.874;9.086;2022-12-18T08:36:21;43.47;;;15.77;;
289;SDS011;13193;48.874;9.086;2022-12-18T08:38:47;56.90;;;18.20;;
289;SDS011;13193;48.874;9.086;2022-12-18T08:41:13;42.13;;;15.07;;
289;SDS011;13193;48.874;9.086;2022-12-18T08:43:40;39.70;;;14.70;;
289;SDS011;13193;48.874;9.086;2022-12-18T08:46:25;61.40;;;17.43;;
289;SDS011;13193;48.874;9.086;2022-12-18T08:48:53;48.63;;;15.80;;
289;SDS011;13193;48.874;9.086;2022-12-18T08:51:20;45.23;;;16.77;;
289;SDS011;13193;48.874;9.086;2022-12-18T08:53:46;46.67;;;15.63;;
289;SDS011;13193;48.874;9.086;2022-12-18T08:56:12;37.37;;;14.60;;
289;SDS011;13193;48.874;9.086;2022-12-18T08:58:38;53.07;;;16.60;;
289;SDS011;13193;48.874;9.086;2022-12-18T09:01:06;47.93;;;17.90;;
289;SDS011;13193;48.874;9.086;2022-12-18T09:03:36;37.83;;;14.63;;
289;SDS011;13193;48.874;9.086;2022-12-18T09:06:03;55.53;;;16.40;;
289;SDS011;13193;48.874;9.086;2022-12-18T09:08:29;64.47;;;20.37;;
289;SDS011;13193;48.874;9.086;2022-12-18T09:10:55;44.73;;;17.23;;
289;SDS011;13193;48.874;9.086;2022-12-18T09:13:21;49.17;;;16.90;;
289;SDS011;13193;48.874;9.086;2022-12-18T09:15:48;56.17;;;16.67;;
289;SDS011;13193;48.874;9.086;2022-12-18T09:18:16;55.07;;;19.43;;
289;SDS011;13193;48.874;9.086;2022-12-18T09:20:42;62.60;;;22.30;;
289;SDS011;13193;48.874;9.086;2022-12-18T09:23:09;30.80;;;12.33;;
289;SDS011;13193;48.874;9.086;2022-12-18T09:25:35;47.13;;;19.57;;
289;SDS011;13193;48.874;9.086;2022-12-18T09:28:03;45.70;;;18.07;;
289;SDS011;13193;48.874;9.086;2022-12-18T09:30:37;67.07;;;20.73;;
289;SDS011;13193;48.874;9.086;2022-12-18T09:33:04;65.13;;;21.17;;
289;SDS011;13193;48.874;9.086;2022-12-18T09:35:29;54.50;;;16.87;;
289;SDS011;13193;48.874;9.086;2022-12-18T09:37:55;68.93;;;23.67;;
289;SDS011;13193;48.874;9.086;2022-12-18T09:40:22;70.33;;;22.90;;
289;SDS011;13193;48.874;9.086;2022-12-18T09:42:52;75.00;;;24.90;;
289;SDS011;13193;48.874;9.086;2022-12-18T09:45:22;63.30;;;22.77;;
289;SDS011;13193;48.874;9.086;2022-12-18T09:47:49;54.97;;;21.03;;
289;SDS011;13193;48.874;9.086;2022-12-18T09:50:35;59.20;;;19.67;;
289;SDS011;13193;48.874;9.086;2022-12-18T09:53:05;62.80;;;25.60;;
289;SDS011;13193;48.874;9.086;2022-12-18T09:55:38;39.83;;;15.10;;
289;SDS011;13193;48.874;9.086;2022-12-18T09:58:12;48.27;;;17.40;;
289;SDS011;13193;48.874;9.086;2022-12-18T10:00:59;51.57;;;19.23;;
289;SDS011;13193;48.874;9.086;2022-12-18T10:03:25;59.30;;;20.33;;
289;SDS011;13193;48.874;9.086;2022-12-18T10:05:58;56.10;;;19.73;;
289;SDS011;13193;48.874;9.086;2022-12-18T10:11:43;59.20;;;21.93;;
289;SDS011;13193;48.874;9.086;2022-12-18T10:14:33;58.90;;;18.60;;
289;SDS011;13193;48.874;9.086;2022-12-18T10:20:02;60.73;;;19.77;;
289;SDS011;13193;48.874;9.086;2022-12-18T10:27:44;71.20;;;22.50;;
289;SDS011;13193;48.874;9.086;2022-12-18T10:30:18;53.33;;;19.10;;
289;SDS011;13193;48.874;9.086;2022-12-18T10:32:46;62.27;;;25.40;;
289;SDS011;13193;48.874;9.086;2022-12-18T10:35:30;64.67;;;22.80;;
289;SDS011;13193;48.874;9.086;2022-12-18T10:40:30;70.10;;;24.13;;
289;SDS011;13193;48.874;9.086;2022-12-18T10:43:15;51.30;;;19.07;;
289;SDS011;13193;48.874;9.086;2022-12-18T10:45:57;73.30;;;23.30;;
289;SDS011;13193;48.874;9.086;2022-12-18T10:48:35;67.53;;;21.60;;
289;SDS011;13193;48.874;9.086;2022-12-18T10:51:19;76.87;;;24.13;;
289;SDS011;13193;48.874;9.086;2022-12-18T10:56:40;80.33;;;22.70;;
289;SDS011;13193;48.874;9.086;2022-12-18T10:59:11;78.80;;;22.50;;
289;SDS011;13193;48.874;9.086;2022-12-18T11:01:55;64.20;;;22.27;;
289;SDS011;13193;48.874;9.086;2022-12-18T11:04:25;103.27;;;28.50;;
289;SDS011;13193;48.874;9.086;2022-12-18T11:06:56;52.20;;;20.20;;
289;SDS011;13193;48.874;9.086;2022-12-18T11:09:29;61.40;;;22.27;;
289;SDS011;13193;48.874;9.086;2022-12-18T11:12:14;82.57;;;24.73;;
289;SDS011;13193;48.874;9.086;2022-12-18T11:17:21;71.30;;;22.63;;
289;SDS011;13193;48.874;9.086;2022-12-18T11:19:53;75.20;;;23.17;;
289;SDS011;13193;48.874;9.086;2022-12-18T11:22:22;56.47;;;21.20;;
289;SDS011;13193;48.874;9.086;2022-12-18T11:25:02;58.33;;;21.50;;
289;SDS011;13193;48.874;9.086;2022-12-18T11:27:47;49.80;;;20.50;;
289;SDS011;13193;48.874;9.086;2022-12-18T11:30:31;49.83;;;21.60;;
289;SDS011;13193;48.874;9.086;2022-12-18T11:33:05;63.60;;;24.23;;
289;SDS011;13193;48.874;9.086;2022-12-18T11:35:39;56.43;;;17.60;;
289;SDS011;13193;48.874;9.086;2022-12-18T11:38:50;63.07;;;21.63;;
289;SDS011;13193;48.874;9.086;2022-12-18T11:44:09;60.30;;;19.30;;
289;SDS011;13193;48.874;9.086;2022-12-18T11:46:46;58.00;;;20.83;;
289;SDS011;13193;48.874;9.086;2022-12-18T11:49:21;64.77;;;21.20;;
289;SDS011;13193;48.874;9.086;2022-12-18T11:51:59;60.40;;;19.90;;
289;SDS011;13193;48.874;9.086;2022-12-18T11:54:40;60.33;;;17.90;;
289;SDS011;13193;48.874;9.086;2022-12-18T12:00:04;48.80;;;18.73;;
289;SDS011;13193;48.874;9.086;2022-12-18T12:05:51;44.30;;;17.33;;
289;SDS011;13193;48.874;9.086;2022-12-18T12:19:24;61.07;;;17.40;;
289;SDS011;13193;48.874;9.086;2022-12-18T12:22:10;52.33;;;18.07;;
289;SDS011;13193;48.874;9.086;2022-12-18T12:24:43;47.17;;;15.90;;
289;SDS011;13193;48.874;9.086;2022-12-18T12:39:02;55.33;;;20.93;;
289;SDS011;13193;48.874;9.086;2022-12-18T12:41:32;54.57;;;17.20;;
289;SDS011;13193;48.874;9.086;2022-12-18T12:44:25;53.50;;;18.90;;
289;SDS011;13193;48.874;9.086;2022-12-18T12:46:59;90.20;;;19.90;;
289;SDS011;13193;48.874;9.086;2022-12-18T12:49:32;56.07;;;19.37;;
289;SDS011;13193;48.874;9.086;2022-12-18T12:54:37;76.23;;;22.43;;
289;SDS011;13193;48.874;9.086;2022-12-18T12:59:52;59.13;;;21.90;;
289;SDS011;13193;48.874;9.086;2022-12-18T13:02:46;55.33;;;21.80;;
289;SDS011;13193;48.874;9.086;2022-12-18T13:05:24;82.40;;;25.70;;
289;SDS011;13193;48.874;9.086;2022-12-18T13:08:05;56.03;;;20.27;;
289;SDS011;13193;48.874;9.086;2022-12-18T13:10:46;53.50;;;22.60;;
289;SDS011;13193;48.874;9.086;2022-12-18T13:13:15;63.77;;;21.37;;
289;SDS011;13193;48.874;9.086;2022-12-18T13:15:48;55.67;;;21.70;;
289;SDS011;13193;48.874;9.086;2022-12-18T13:18:28;49.30;;;17.17;;
289;SDS011;13193;48.874;9.086;2022-12-18T13:36:46;54.43;;;18.43;;
289;SDS011;13193;48.874;9.086;2022-12-18T13:41:52;60.20;;;21.17;;
289;SDS011;13193;48.874;9.086;2022-12-18T13:45:02;61.83;;;23.17;;
289;SDS011;13193;48.874;9.086;2022-12-18T13:48:04;57.17;;;21.43;;
289;SDS011;13193;48.874;9.086;2022-12-18T13:50:39;49.60;;;19.70;;
289;SDS011;13193;48.874;9.086;2022-12-18T13:53:25;72.83;;;20.97;;
289;SDS011;13193;48.874;9.086;2022-12-18T13:55:54;51.90;;;18.73;;
289;SDS011;13193;48.874;9.086;2022-12-18T13:58:27;55.37;;;21.30;;
289;SDS011;13193;48.874;9.086;2022-12-18T14:00:53;50.87;;;19.63;;
289;SDS011;13193;48.874;9.086;2022-12-18T14:03:22;52.60;;;18.87;;
289;SDS011;13193;48.874;9.086;2022-12-18T14:05:54;55.70;;;22.97;;
289;SDS011;13193;48.874;9.086;2022-12-18T14:08:33;61.73;;;20.10;;
289;SDS011;13193;48.874;9.086;2022-12-18T14:11:03;74.53;;;19.50;;
289;SDS011;13193;48.874;9.086;2022-12-18T14:13:41;60.37;;;21.40;;
289;SDS011;13193;48.874;9.086;2022-12-18T14:16:07;65.97;;;21.27;;
289;SDS011;13193;48.874;9.086;2022-12-18T14:18:57;61.00;;;19.77;;
289;SDS011;13193;48.874;9.086;2022-12-18T14:21:27;54.50;;;18.23;;
289;SDS011;13193;48.874;9.086;2022-12-18T14:24:04;53.27;;;18.53;;
289;SDS011;13193;48.874;9.086;2022-12-18T14:26:33;48.43;;;17.80;;
289;SDS011;13193;48.874;9.086;2022-12-18T14:29:00;60.57;;;19.63;;
289;SDS011;13193;48.874;9.086;2022-12-18T14:31:43;60.10;;;19.53;;
289;SDS011;13193;48.874;9.086;2022-12-18T14:34:14;53.73;;;17.70;;
289;SDS011;13193;48.874;9.086;2022-12-18T14:36:41;52.23;;;17.83;;
289;SDS011;13193;48.874;9.086;2022-12-18T14:39:17;54.40;;;18.53;;
289;SDS011;13193;48.874;9.086;2022-12-18T14:41:43;57.43;;;18.80;;
289;SDS011;13193;48.874;9.086;2022-12-18T14:44:10;54.47;;;19.57;;
289;SDS011;13193;48.874;9.086;2022-12-18T14:46:38;67.87;;;19.97;;
289;SDS011;13193;48.874;9.086;2022-12-18T14:52:01;61.43;;;21.20;;
289;SDS011;13193;48.874;9.086;2022-12-18T14:54:29;44.13;;;16.13;;
289;SDS011;13193;48.874;9.086;2022-12-18T14:57:03;47.43;;;19.33;;
289;SDS011;13193;48.874;9.086;2022-12-18T14:59:30;51.70;;;14.73;;
289;SDS011;13193;48.874;9.086;2022-12-18T15:04:35;60.77;;;19.17;;
289;SDS011;13193;48.874;9.086;2022-12-18T15:07:12;55.33;;;18.07;;
289;SDS011;13193;48.874;9.086;2022-12-18T15:10:03;61.77;;;20.40;;
289;SDS011;13193;48.874;9.086;2022-12-18T15:12:41;63.00;;;20.23;;
289;SDS011;13193;48.874;9.086;2022-12-18T15:20:55;63.87;;;21.60;;
289;SDS011;13193;48.874;9.086;2022-12-18T15:23:24;57.00;;;18.47;;
289;SDS011;13193;48.874;9.086;2022-12-18T15:26:01;65.23;;;19.83;;
289;SDS011;13193;48.874;9.086;2022-12-18T15:36:24;59.57;;;20.57;;
289;SDS011;13193;48.874;9.086;2022-12-18T15:38:53;55.25;;;22.27;;
289;SDS011;13193;48.874;9.086;2022-12-18T15:41:20;54.67;;;18.00;;
289;SDS011;13193;48.874;9.086;2022-12-18T15:43:47;68.63;;;22.40;;
289;SDS011;13193;48.874;9.086;2022-12-18T15:46:15;77.30;;;21.27;;
289;SDS011;13193;48.874;9.086;2022-12-18T15:48:44;42.50;;;18.00;;
289;SDS011;13193;48.874;9.086;2022-12-18T15:51:13;58.60;;;21.43;;
289;SDS011;13193;48.874;9.086;2022-12-18T15:53:42;49.33;;;20.60;;
289;SDS011;13193;48.874;9.086;2022-12-18T15:56:12;72.77;;;19.50;;
289;SDS011;13193;48.874;9.086;2022-12-18T15:58:57;69.83;;;22.53;;
289;SDS011;13193;48.874;9.086;2022-12-18T16:01:26;71.17;;;21.87;;
289;SDS011;13193;48.874;9.086;2022-12-18T16:03:53;64.97;;;21.07;;
289;SDS011;13193;48.874;9.086;2022-12-18T16:06:19;75.20;;;22.50;;
289;SDS011;13193;48.874;9.086;2022-12-18T16:08:45;79.63;;;20.00;;
289;SDS011;13193;48.874;9.086;2022-12-18T16:11:29;61.40;;;25.13;;
289;SDS011;13193;48.874;9.086;2022-12-18T16:14:06;74.40;;;24.80;;
289;SDS011;13193;48.874;9.086;2022-12-18T16:16:42;77.27;;;21.20;;
289;SDS011;13193;48.874;9.086;2022-12-18T16:19:07;66.53;;;21.23;;
289;SDS011;13193;48.874;9.086;2022-12-18T16:21:33;67.83;;;21.87;;
289;SDS011;13193;48.874;9.086;2022-12-18T16:23:59;73.70;;;24.07;;
289;SDS011;13193;48.874;9.086;2022-12-18T16:26:24;70.17;;;23.40;;
289;SDS011;13193;48.874;9.086;2022-12-18T16:28:50;57.60;;;20.27;;
289;SDS011;13193;48.874;9.086;2022-12-18T16:31:16;86.77;;;24.07;;
289;SDS011;13193;48.874;9.086;2022-12-18T16:33:41;69.40;;;23.00;;
289;SDS011;13193;48.874;9.086;2022-12-18T16:36:07;78.63;;;25.53;;
289;SDS011;13193;48.874;9.086;2022-12-18T16:38:33;88.47;;;26.53;;
289;SDS011;13193;48.874;9.086;2022-12-18T16:40:58;90.90;;;26.70;;
289;SDS011;13193;48.874;9.086;2022-12-18T16:43:47;88.13;;;23.97;;
289;SDS011;13193;48.874;9.086;2022-12-18T16:46:13;62.70;;;22.53;;
289;SDS011;13193;48.874;9.086;2022-12-18T16:48:39;64.30;;;22.17;;
289;SDS011;13193;48.874;9.086;2022-12-18T16:51:05;71.57;;;28.47;;
289;SDS011;13193;48.874;9.086;2022-12-18T16:53:34;73.57;;;25.43;;
289;SDS011;13193;48.874;9.086;2022-12-18T16:55:59;75.13;;;26.33;;
289;SDS011;13193;48.874;9.086;2022-12-18T16:58:25;73.17;;;26.77;;
289;SDS011;13193;48.874;9.086;2022-12-18T17:00:50;67.63;;;24.50;;
289;SDS011;13193;48.874;9.086;2022-12-18T17:03:16;82.43;;;26.03;;
289;SDS011;13193;48.874;9.086;2022-12-18T17:05:42;70.33;;;22.10;;
289;SDS011;13193;48.874;9.086;2022-12-18T17:08:07;77.70;;;22.93;;
289;SDS011;13193;48.874;9.086;2022-12-18T17:10:36;74.90;;;26.90;;
289;SDS011;13193;48.874;9.086;2022-12-18T17:13:01;78.30;;;24.97;;
289;SDS011;13193;48.874;9.086;2022-12-18T17:15:27;73.13;;;27.90;;